Terminal Aerodrome Forecast
Issued by NWS Jackson, KY

Home | Current Version | Previous Version | Text Only | Print | Product List | Glossary On
Versions: 1 2 3 4 5 6 7 8 9 10 11 12 13 14 15 16
000
FTUS43 KJKL 260700 AAB
TAFLOZ
TAF AMD
KLOZ 260720Z 2607/2706 00000KT 1/4SM FG VV002
      TEMPO 2613/2615 3SM BR SCT005
     FM261500 VRB05KT P6SM SKC=

USA.gov is the U.S. government's official web portal to all federal, state and local government web resources and services.